Time;durP1;ratioP1;P1;durP2;ratioP2;P2;SDS_P1;SDS_P2;PMS_P1;PMS_P2;Temp;Humidity;BMP_temperature;BMP_pressure;BME280_temperature;BME280_humidity;BME280_pressure;Samples;Min_cycle;Max_cycle;Signal;HPM_P1;HPM_P2
2021/10/03 00:07:31;;;;;;;5.85;1.87;;;19.60;99.90;;;;;;6777664;88;20628;-82
2021/10/03 00:17:32;;;;;;;4.32;1.92;;;19.50;99.90;;;;;;6775214;88;20179;-79
2021/10/03 00:27:33;;;;;;;4.30;1.60;;;19.50;99.90;;;;;;6778419;88;20221;-79
2021/10/03 00:37:34;;;;;;;3.58;1.80;;;19.60;99.90;;;;;;6777607;88;20203;-83
2021/10/03 00:47:35;;;;;;;2.70;1.20;;;19.80;99.90;;;;;;6782107;87;20160;-82
2021/10/03 00:57:35;;;;;;;5.57;1.60;;;19.80;99.90;;;;;;6777373;87;20191;-80
2021/10/03 01:07:36;;;;;;;3.60;1.70;;;19.90;99.90;;;;;;6780052;88;20199;-82
2021/10/03 01:17:37;;;;;;;3.45;1.52;;;19.70;99.90;;;;;;6779866;88;20932;-83
2021/10/03 01:27:38;;;;;;;3.58;2.25;;;19.70;99.90;;;;;;6781285;88;20176;-83
2021/10/03 01:37:39;;;;;;;2.62;1.80;;;19.70;99.90;;;;;;6784263;87;20306;-83
2021/10/03 01:48:15;;;;;;;2.05;1.17;;;19.40;99.90;;;;;;6784945;87;20191;-82
2021/10/03 01:58:19;;;;;;;4.12;2.00;;;19.20;99.90;;;;;;6767904;88;20193;-84
2021/10/03 02:08:20;;;;;;;3.13;1.90;;;19.10;99.90;;;;;;6764123;88;20177;-83
2021/10/03 02:18:22;;;;;;;4.15;2.03;;;18.90;99.90;;;;;;6767515;88;20156;-83
2021/10/03 02:28:26;;;;;;;4.60;2.08;;;18.90;99.90;;;;;;6766455;88;20712;-84
2021/10/03 02:38:27;;;;;;;3.92;1.80;;;18.90;99.90;;;;;;6747700;88;20165;-83
2021/10/03 02:48:30;;;;;;;4.28;2.08;;;18.90;99.90;;;;;;6748026;88;20703;-82
2021/10/03 02:58:30;;;;;;;3.95;2.65;;;19.10;99.90;;;;;;6747446;88;20198;-83
2021/10/03 03:08:31;;;;;;;4.63;2.70;;;19.20;99.90;;;;;;6762598;88;20190;-85
2021/10/03 03:18:32;;;;;;;5.72;2.97;;;19.20;99.90;;;;;;6766830;88;20482;-82
2021/10/03 03:28:33;;;;;;;6.77;3.10;;;19.30;99.90;;;;;;6766688;88;20262;-83
2021/10/03 03:38:36;;;;;;;7.32;2.97;;;19.40;99.90;;;;;;6765344;88;20540;-83
2021/10/03 03:48:37;;;;;;;5.43;3.10;;;19.40;99.90;;;;;;6765819;88;20682;-83
2021/10/03 03:58:37;;;;;;;7.72;3.20;;;19.50;99.90;;;;;;6765802;88;20183;-83
2021/10/03 04:08:38;;;;;;;5.47;3.65;;;19.50;99.90;;;;;;6746783;88;20153;-82
2021/10/03 04:18:39;;;;;;;6.85;3.80;;;19.60;99.90;;;;;;6712848;88;20707;-83
2021/10/03 04:28:39;;;;;;;5.72;3.55;;;19.50;99.90;;;;;;6707764;88;20171;-83
2021/10/03 04:38:40;;;;;;;6.95;3.80;;;19.50;99.90;;;;;;6727075;88;20196;-82
2021/10/03 04:48:41;;;;;;;8.15;4.22;;;19.60;99.90;;;;;;6761564;88;21120;-83
2021/10/03 04:58:42;;;;;;;6.07;3.47;;;19.60;99.90;;;;;;6732355;88;20230;-83
2021/10/03 05:08:42;;;;;;;6.97;3.92;;;19.70;99.90;;;;;;6731996;88;20162;-82
2021/10/03 05:18:43;;;;;;;7.07;3.80;;;19.80;99.90;;;;;;6714055;88;20224;-87
2021/10/03 05:28:44;;;;;;;5.32;3.40;;;19.80;99.90;;;;;;6710378;88;20591;-83
2021/10/03 05:38:44;;;;;;;5.37;3.22;;;19.80;99.90;;;;;;6730536;88;20229;-84
2021/10/03 05:48:45;;;;;;;6.33;3.07;;;19.90;99.90;;;;;;6737404;88;20574;-84
2021/10/03 05:58:45;;;;;;;6.32;3.40;;;19.90;99.90;;;;;;6748610;88;20181;-84
2021/10/03 06:08:48;;;;;;;4.93;2.90;;;19.90;99.90;;;;;;6748683;88;20190;-84
2021/10/03 06:18:51;;;;;;;5.82;3.40;;;19.90;99.90;;;;;;6757990;88;20256;-84
2021/10/03 06:28:52;;;;;;;6.82;3.50;;;19.90;99.90;;;;;;6767642;88;20167;-83
2021/10/03 06:48:56;;;;;;;5.85;3.37;;;20.00;99.90;;;;;;6770016;88;20199;-83
2021/10/03 06:58:57;;;;;;;4.62;2.85;;;20.00;99.90;;;;;;6766053;88;20644;-84
2021/10/03 07:08:57;;;;;;;5.22;3.00;;;20.00;99.90;;;;;;6767713;88;20168;-82
2021/10/03 07:18:58;;;;;;;6.75;2.85;;;20.00;99.90;;;;;;6758379;88;20290;-80
2021/10/03 07:28:58;;;;;;;5.93;3.10;;;20.00;99.90;;;;;;6746398;88;20645;-82
2021/10/03 07:38:59;;;;;;;7.43;3.00;;;20.10;99.90;;;;;;6741009;88;20208;-78
2021/10/03 07:49:00;;;;;;;5.40;2.72;;;20.10;99.90;;;;;;6672639;89;20606;-78
2021/10/03 07:59:00;;;;;;;5.10;3.00;;;20.10;99.90;;;;;;6669253;89;21049;-78
2021/10/03 08:09:01;;;;;;;9.33;2.60;;;19.90;99.90;;;;;;6667280;89;20189;-77
2021/10/03 08:19:03;;;;;;;4.90;3.15;;;19.90;99.90;;;;;;6657197;89;20660;-79
2021/10/03 08:29:03;;;;;;;4.93;3.35;;;19.80;99.90;;;;;;6660525;89;20639;-79
2021/10/03 08:39:04;;;;;;;5.80;2.90;;;19.60;99.90;;;;;;6664649;89;20195;-79
2021/10/03 08:49:05;;;;;;;6.62;3.40;;;19.50;99.90;;;;;;6682669;89;20965;-79
2021/10/03 08:59:05;;;;;;;4.93;3.12;;;19.50;99.90;;;;;;6678159;89;20168;-79
2021/10/03 09:09:06;;;;;;;5.65;2.67;;;19.60;99.90;;;;;;6685640;89;20265;-82
2021/10/03 09:19:13;;;;;;;4.12;2.60;;;19.90;99.90;;;;;;6685468;89;20820;-79
2021/10/03 09:29:27;;;;;;;4.32;2.67;;;20.10;99.90;;;;;;6684078;89;20183;-80
2021/10/03 09:39:39;;;;;;;4.27;3.00;;;20.10;99.90;;;;;;6661722;89;20218;-78
2021/10/03 09:49:40;;;;;;;5.40;2.85;;;20.20;99.90;;;;;;6668514;89;20223;-79
2021/10/03 09:59:42;;;;;;;5.77;2.73;;;20.30;99.90;;;;;;6668483;89;20271;-77
2021/10/03 10:09:45;;;;;;;5.18;2.92;;;20.30;99.90;;;;;;6678239;89;20498;-77
2021/10/03 10:19:46;;;;;;;3.83;2.72;;;20.30;99.90;;;;;;6692709;88;20219;-82
2021/10/03 10:30:00;;;;;;;5.97;2.85;;;20.60;99.90;;;;;;6695061;88;20209;-81
2021/10/03 10:40:36;;;;;;;4.57;2.07;;;20.60;99.90;;;;;;6688177;88;20148;-81
2021/10/03 11:01:22;;;;;;;5.28;2.70;;;20.50;99.90;;;;;;6648116;88;20223;-80
2021/10/03 11:11:23;;;;;;;4.07;2.70;;;20.80;99.90;;;;;;6662135;89;20725;-79
2021/10/03 11:21:33;;;;;;;5.25;2.75;;;21.00;99.90;;;;;;6670727;89;20246;-80
2021/10/03 11:31:41;;;;;;;5.32;2.40;;;21.10;99.90;;;;;;6663739;89;20192;-80
2021/10/03 11:41:51;;;;;;;6.62;2.78;;;21.30;99.90;;;;;;6668032;89;20206;-81
2021/10/03 11:51:51;;;;;;;4.87;2.80;;;21.40;99.90;;;;;;6668414;89;20224;-80
2021/10/03 12:01:52;;;;;;;4.28;2.80;;;21.70;99.90;;;;;;6667387;89;20179;-80
2021/10/03 12:11:55;;;;;;;5.65;2.40;;;21.70;99.90;;;;;;6670451;89;20204;-81
2021/10/03 12:22:04;;;;;;;3.60;2.35;;;21.70;99.90;;;;;;6668895;89;20801;-81
2021/10/03 12:32:11;;;;;;;4.10;2.40;;;22.00;99.90;;;;;;6665214;89;20179;-81
2021/10/03 12:42:15;;;;;;;3.55;1.92;;;22.10;99.90;;;;;;6638062;89;20244;-80
2021/10/03 12:52:17;;;;;;;4.03;2.25;;;22.20;99.90;;;;;;6665471;89;20290;-80
2021/10/03 13:02:18;;;;;;;2.53;1.45;;;21.90;99.90;;;;;;6663981;89;20276;-79
2021/10/03 13:12:18;;;;;;;2.92;1.60;;;21.50;99.90;;;;;;6673096;88;20314;-78
2021/10/03 13:22:19;;;;;;;5.05;1.85;;;21.40;99.90;;;;;;6672593;89;20197;-79
2021/10/03 13:32:20;;;;;;;2.62;1.17;;;21.30;99.90;;;;;;6676581;88;20329;-77
2021/10/03 13:42:21;;;;;;;2.10;1.10;;;21.00;99.90;;;;;;6667986;89;20245;-78
2021/10/03 13:52:21;;;;;;;4.18;0.90;;;20.70;99.90;;;;;;6673839;89;20169;-81
2021/10/03 14:02:22;;;;;;;2.10;0.87;;;20.60;99.90;;;;;;6679180;89;20210;-79
2021/10/03 14:12:24;;;;;;;2.28;0.80;;;20.40;99.90;;;;;;6688083;88;20293;-80
2021/10/03 14:22:25;;;;;;;1.52;0.73;;;20.30;99.90;;;;;;6670674;89;20281;-80
2021/10/03 14:32:26;;;;;;;1.60;0.60;;;20.30;99.90;;;;;;6677798;88;20351;-79
2021/10/03 14:42:26;;;;;;;1.17;0.47;;;20.20;99.90;;;;;;6671538;89;20267;-79
2021/10/03 14:52:27;;;;;;;1.15;0.40;;;20.10;99.90;;;;;;6674389;88;20709;-82
2021/10/03 15:02:28;;;;;;;1.10;0.32;;;19.90;99.90;;;;;;6673546;88;20188;-78
2021/10/03 15:12:29;;;;;;;2.70;0.40;;;19.70;99.90;;;;;;6675917;88;20289;-81
2021/10/03 15:22:29;;;;;;;1.03;0.30;;;19.70;99.90;;;;;;6677489;88;20511;-78
2021/10/03 15:32:30;;;;;;;1.10;0.40;;;19.70;99.90;;;;;;6673429;88;20499;-79
2021/10/03 15:42:31;;;;;;;0.98;0.30;;;19.70;99.90;;;;;;6672176;88;20216;-79
2021/10/03 15:52:31;;;;;;;1.40;0.40;;;19.50;99.90;;;;;;6670892;89;20191;-78
2021/10/03 16:02:32;;;;;;;0.70;0.35;;;19.50;99.90;;;;;;6671537;89;20508;-78
2021/10/03 16:12:32;;;;;;;1.50;0.50;;;19.40;99.90;;;;;;6668757;88;20728;-78
2021/10/03 16:22:33;;;;;;;1.57;0.70;;;16.90;99.90;;;;;;6671113;88;20192;-79
2021/10/03 16:32:33;;;;;;;1.67;1.10;;;14.90;99.90;;;;;;6673560;89;20527;-75
2021/10/03 16:42:34;;;;;;;2.97;1.53;;;14.40;99.90;;;;;;6668294;89;20180;-76
2021/10/03 16:52:35;;;;;;;2.40;1.60;;;14.00;99.90;;;;;;6658551;88;20562;-77
2021/10/03 17:02:35;;;;;;;2.47;1.75;;;13.80;99.90;;;;;;6663441;88;20203;-76
2021/10/03 17:12:37;;;;;;;1.40;0.90;;;13.70;99.90;;;;;;6660501;88;20197;-77
2021/10/03 17:22:38;;;;;;;1.60;1.00;;;13.80;99.90;;;;;;6668018;88;20527;-76
2021/10/03 17:32:39;;;;;;;1.30;0.88;;;13.70;99.90;;;;;;6663205;88;20496;-77
2021/10/03 17:42:40;;;;;;;1.87;0.80;;;13.80;99.90;;;;;;6658008;88;20217;-77
2021/10/03 17:52:41;;;;;;;1.60;0.85;;;13.70;99.90;;;;;;6659213;88;20208;-78
2021/10/03 18:02:42;;;;;;;1.00;0.60;;;13.50;99.90;;;;;;6661433;89;20226;-77
2021/10/03 18:12:42;;;;;;;1.70;0.70;;;13.60;99.90;;;;;;6660122;89;20188;-77
2021/10/03 18:22:43;;;;;;;1.42;0.70;;;13.70;99.90;;;;;;6653299;89;20196;-76
2021/10/03 18:32:48;;;;;;;1.67;0.70;;;13.60;99.90;;;;;;6647351;89;20738;-76
2021/10/03 18:42:49;;;;;;;0.90;0.50;;;13.60;99.90;;;;;;6647144;89;20734;-77
2021/10/03 18:52:50;;;;;;;1.15;0.50;;;13.50;99.90;;;;;;6646717;89;20184;-76
2021/10/03 19:02:50;;;;;;;1.40;0.60;;;13.40;99.90;;;;;;6647272;89;20212;-75
2021/10/03 19:12:51;;;;;;;1.27;0.57;;;13.50;99.90;;;;;;6646979;89;20315;-77
2021/10/03 19:22:51;;;;;;;0.90;0.45;;;13.40;99.90;;;;;;6649646;89;20248;-78
2021/10/03 19:32:53;;;;;;;1.62;0.40;;;13.40;99.90;;;;;;6650080;89;20250;-77
2021/10/03 19:42:54;;;;;;;1.15;0.40;;;13.30;99.90;;;;;;6641603;89;20189;-76
2021/10/03 19:52:54;;;;;;;1.12;0.50;;;13.30;99.90;;;;;;6642901;89;20300;-77
2021/10/03 20:02:55;;;;;;;0.80;0.30;;;13.20;99.90;;;;;;6646418;89;20217;-78
2021/10/03 20:12:56;;;;;;;2.22;0.55;;;13.20;99.90;;;;;;6646620;89;20615;-77
2021/10/03 20:22:56;;;;;;;1.92;0.40;;;13.10;99.90;;;;;;6652774;89;20625;-77
2021/10/03 20:32:57;;;;;;;1.20;0.40;;;13.10;99.90;;;;;;6651335;89;20230;-77
2021/10/03 20:43:02;;;;;;;1.35;0.40;;;13.00;99.90;;;;;;6650615;89;20213;-77
2021/10/03 20:53:04;;;;;;;1.57;0.30;;;13.10;99.90;;;;;;6650742;89;20641;-78
2021/10/03 21:03:04;;;;;;;1.75;0.37;;;13.20;99.90;;;;;;6653225;89;20212;-76
2021/10/03 21:13:05;;;;;;;2.00;0.40;;;13.10;99.90;;;;;;6652247;89;20208;-76
2021/10/03 21:23:06;;;;;;;2.05;0.50;;;13.20;99.90;;;;;;6650947;89;20787;-79
2021/10/03 21:33:06;;;;;;;1.07;0.30;;;13.20;99.90;;;;;;6653322;89;20195;-78
2021/10/03 21:43:09;;;;;;;1.95;0.52;;;13.00;99.90;;;;;;6651317;89;20572;-78
2021/10/03 21:53:09;;;;;;;1.60;0.30;;;13.20;99.90;;;;;;6660902;88;20321;-78
2021/10/03 22:03:11;;;;;;;1.45;0.40;;;13.00;99.90;;;;;;6665158;89;20250;-78
2021/10/03 22:13:11;;;;;;;0.80;0.35;;;13.00;99.90;;;;;;6659467;89;20215;-78
2021/10/03 22:23:12;;;;;;;1.58;0.20;;;13.00;99.90;;;;;;6665348;89;20213;-78
2021/10/03 22:33:14;;;;;;;1.35;0.43;;;12.90;99.90;;;;;;6675041;89;20212;-79
2021/10/03 22:43:15;;;;;;;1.33;0.35;;;13.00;99.90;;;;;;6679712;89;20305;-78
2021/10/03 22:53:16;;;;;;;1.00;0.40;;;12.90;99.90;;;;;;6666649;89;20187;-77
2021/10/03 23:03:17;;;;;;;1.27;0.40;;;13.00;99.90;;;;;;6657644;89;20213;-78
2021/10/03 23:13:17;;;;;;;1.23;0.50;;;12.90;99.90;;;;;;6652803;89;20774;-78
2021/10/03 23:23:18;;;;;;;1.55;0.50;;;12.70;99.90;;;;;;6649021;89;20212;-79
2021/10/03 23:33:18;;;;;;;1.60;0.40;;;12.70;99.90;;;;;;6649446;88;20202;-78
2021/10/03 23:43:19;;;;;;;1.40;0.40;;;12.70;99.90;;;;;;6652580;89;20204;-77
2021/10/03 23:53:20;;;;;;;2.50;0.60;;;12.70;99.90;;;;;;6652708;88;20207;-78
